createdAt,value
2022-12-12T00:00:01.613Z,0.46
2022-12-12T00:02:30.415Z,0.64
2022-12-12T00:05:04.829Z,0.57
2022-12-12T00:07:41.729Z,0.47
2022-12-12T00:10:13.689Z,0.62
2022-12-12T00:12:57.807Z,0.56
2022-12-12T00:15:28.998Z,0.48
2022-12-12T00:18:04.813Z,0.40
2022-12-12T00:20:37.367Z,0.52
2022-12-12T00:23:07.281Z,0.54
2022-12-12T00:25:40.501Z,0.49
2022-12-12T00:28:11.090Z,0.61
2022-12-12T00:30:48.130Z,0.52
2022-12-12T00:33:25.808Z,0.56
2022-12-12T00:36:06.486Z,0.55
2022-12-12T00:38:36.294Z,0.63
2022-12-12T00:41:07.638Z,0.48
2022-12-12T00:43:38.801Z,0.34
2022-12-12T00:46:18.358Z,0.41
2022-12-12T00:48:49.851Z,0.70
2022-12-12T00:51:22.922Z,0.56
2022-12-12T00:53:52.867Z,0.53
2022-12-12T00:56:33.239Z,0.54
2022-12-12T00:59:04.489Z,0.67
2022-12-12T01:01:34.692Z,0.70
2022-12-12T01:04:12.668Z,0.55
2022-12-12T01:07:03.277Z,0.35
2022-12-12T01:09:32.393Z,0.56
2022-12-12T01:12:11.395Z,0.40
2022-12-12T01:14:44.482Z,0.39
2022-12-12T01:17:23.581Z,0.45
2022-12-12T01:19:52.388Z,0.30
2022-12-12T01:22:23.883Z,0.27
2022-12-12T01:24:59.619Z,0.31
2022-12-12T01:27:34.322Z,0.36
2022-12-12T01:30:03.835Z,0.29
2022-12-12T01:32:36.009Z,0.22
2022-12-12T01:35:08.367Z,0.01
2022-12-12T01:37:41.517Z,0.42
2022-12-12T01:40:22.964Z,0.17
2022-12-12T01:42:55.007Z,0.18
2022-12-12T01:46:11.400Z,0.12
2022-12-12T01:48:43.078Z,0.15
2022-12-12T01:51:14.830Z,0.10
2022-12-12T01:53:47.009Z,0.15
2022-12-12T01:56:21.430Z,0.32
2022-12-12T01:58:53.361Z,0.22
2022-12-12T02:01:27.597Z,0.33
2022-12-12T02:04:00.125Z,0.14
2022-12-12T02:06:40.533Z,0.04
2022-12-12T02:09:15.789Z,-0.02
2022-12-12T02:11:47.820Z,-0.22
2022-12-12T02:14:29.940Z,-0.14
2022-12-12T02:17:24.940Z,-0.24
2022-12-12T02:20:35.530Z,-0.32
2022-12-12T02:23:47.199Z,-0.14
2022-12-12T02:27:01.421Z,-0.10
2022-12-12T02:30:16.180Z,-0.48
2022-12-12T02:33:10.212Z,-0.43
2022-12-12T02:35:56.438Z,-0.32
2022-12-12T02:38:30.967Z,-0.26
2022-12-12T02:41:14.785Z,-0.39
2022-12-12T02:43:45.278Z,-0.39
2022-12-12T02:46:19.103Z,-0.27
2022-12-12T02:49:11.381Z,-0.17
2022-12-12T02:51:42.508Z,-0.15
2022-12-12T02:54:16.727Z,-0.17
2022-12-12T02:56:58.468Z,-0.43
2022-12-12T02:59:38.675Z,-0.46
2022-12-12T03:02:58.111Z,-0.60
2022-12-12T03:05:58.035Z,-0.43
2022-12-12T03:08:59.975Z,-0.59
2022-12-12T03:11:37.119Z,-0.43
2022-12-12T03:14:11.383Z,-0.61
2022-12-12T03:16:51.775Z,-0.47
2022-12-12T03:19:27.601Z,-0.47
2022-12-12T03:22:01.685Z,-0.59
2022-12-12T03:24:32.216Z,-0.77
2022-12-12T03:27:02.731Z,-0.85
2022-12-12T03:29:35.563Z,-0.63
2022-12-12T03:32:08.565Z,-0.47
2022-12-12T03:34:43.255Z,-0.62
2022-12-12T03:37:24.952Z,-0.51
2022-12-12T03:39:59.261Z,-0.50
2022-12-12T03:42:33.962Z,-0.38
2022-12-12T03:45:07.673Z,-0.64
2022-12-12T03:47:43.633Z,-0.75
2022-12-12T03:50:19.413Z,-0.73
2022-12-12T03:53:01.561Z,-0.75
2022-12-12T03:55:45.237Z,-0.59
2022-12-12T03:58:21.879Z,-0.60
2022-12-12T04:00:54.390Z,-0.55
2022-12-12T04:03:47.229Z,-0.60
2022-12-12T04:06:29.594Z,-0.49
2022-12-12T04:09:20.495Z,-0.48
2022-12-12T04:12:27.613Z,-0.42
2022-12-12T04:15:37.369Z,-0.40
2022-12-12T04:18:15.349Z,-0.39
2022-12-12T04:21:09.214Z,-0.73
2022-12-12T04:23:51.199Z,-0.58
2022-12-12T04:26:45.252Z,-0.57
2022-12-12T04:29:24.097Z,-0.40
2022-12-12T04:31:58.970Z,-0.37
2022-12-12T04:34:40.005Z,-0.48
2022-12-12T04:37:29.131Z,-0.32
2022-12-12T04:40:05.255Z,-0.48
2022-12-12T04:42:38.379Z,-0.42
2022-12-12T04:45:14.327Z,-0.39
2022-12-12T04:48:18.502Z,-0.24
2022-12-12T04:50:54.856Z,-0.38
2022-12-12T04:53:29.283Z,-0.42
2022-12-12T04:56:03.773Z,-0.56
2022-12-12T04:58:41.223Z,-0.40
2022-12-12T05:01:14.435Z,-0.44
2022-12-12T05:03:52.677Z,-0.36
2022-12-12T05:06:28.204Z,-0.66
2022-12-12T05:09:04.586Z,-0.52
2022-12-12T05:11:34.775Z,-0.79
2022-12-12T05:14:11.629Z,-0.82
2022-12-12T05:16:48.504Z,-0.76
2022-12-12T05:19:33.152Z,-0.92
2022-12-12T05:22:01.333Z,-0.92
2022-12-12T05:24:35.873Z,-0.92
2022-12-12T05:27:06.562Z,-0.88
2022-12-12T05:29:42.435Z,-0.98
2022-12-12T05:32:10.524Z,-0.71
2022-12-12T05:34:45.764Z,-0.79
2022-12-12T05:37:17.616Z,-0.58
2022-12-12T05:39:54.525Z,-0.46
2022-12-12T05:42:25.804Z,-0.56
2022-12-12T05:45:05.055Z,-0.47
2022-12-12T05:47:35.592Z,-0.44
2022-12-12T05:50:06.160Z,-0.53
2022-12-12T05:52:37.052Z,-0.45
2022-12-12T05:55:17.088Z,-0.47
2022-12-12T05:57:48.094Z,-0.63
2022-12-12T06:00:20.114Z,-0.51
2022-12-12T06:02:48.497Z,-0.78
2022-12-12T06:05:16.729Z,-0.73
2022-12-12T06:07:48.296Z,-0.83
2022-12-12T06:10:16.416Z,-0.84
2022-12-12T06:12:44.515Z,-0.80
2022-12-12T06:15:13.228Z,-0.80
2022-12-12T06:17:42.996Z,-0.68
2022-12-12T06:20:11.864Z,-0.96
2022-12-12T06:22:42.510Z,-0.63
2022-12-12T06:25:11.204Z,-0.93
2022-12-12T06:27:39.618Z,-1.45
2022-12-12T06:30:09.316Z,-1.37
2022-12-12T06:32:37.449Z,-1.32
2022-12-12T06:35:07.454Z,-1.31
2022-12-12T06:37:35.761Z,-1.30
2022-12-12T06:40:04.194Z,-1.45
2022-12-12T06:42:32.242Z,-1.23
2022-12-12T06:45:00.456Z,-1.23
2022-12-12T06:47:28.749Z,-1.07
2022-12-12T06:49:56.799Z,-1.02
2022-12-12T06:52:26.314Z,-1.00
2022-12-12T06:54:54.448Z,-1.19
2022-12-12T06:57:22.605Z,-1.21
2022-12-12T06:59:52.116Z,-1.54
2022-12-12T07:02:23.342Z,-1.27
2022-12-12T07:04:57.449Z,-1.29
2022-12-12T07:07:26.931Z,-1.10
2022-12-12T07:09:55.626Z,-1.15
2022-12-12T07:12:23.780Z,-1.38
2022-12-12T07:14:51.927Z,-1.16
2022-12-12T07:17:20.410Z,-1.26
2022-12-12T07:19:48.464Z,-1.05
2022-12-12T07:22:16.621Z,-1.19
2022-12-12T07:24:46.185Z,-1.05
2022-12-12T07:27:19.998Z,-0.90
2022-12-12T07:29:49.749Z,-0.89
2022-12-12T07:32:17.910Z,-0.90
2022-12-12T07:34:46.016Z,-0.99
2022-12-12T07:37:14.085Z,-0.98
2022-12-12T07:39:42.197Z,-1.14
2022-12-12T07:42:11.721Z,-0.99
2022-12-12T07:44:41.003Z,-1.22
2022-12-12T07:47:09.134Z,-0.95
2022-12-12T07:49:37.251Z,-1.31
2022-12-12T07:52:05.767Z,-1.02
2022-12-12T07:54:33.840Z,-0.87
2022-12-12T07:57:01.907Z,-1.03
2022-12-12T07:59:31.369Z,-0.80
2022-12-12T08:01:59.416Z,-0.90
2022-12-12T08:04:28.504Z,-1.00
2022-12-12T08:07:01.791Z,-1.09
2022-12-12T08:09:32.309Z,-0.86
2022-12-12T08:12:00.536Z,-1.03
2022-12-12T08:14:31.116Z,-1.30
2022-12-12T08:17:00.905Z,-1.05
2022-12-12T08:19:31.280Z,-0.65
2022-12-12T08:21:59.401Z,-0.83
2022-12-12T08:24:30.034Z,-0.58
2022-12-12T08:26:58.543Z,-0.64
2022-12-12T08:29:26.665Z,-0.64
2022-12-12T08:31:54.839Z,-0.65
2022-12-12T08:34:24.772Z,-0.76
2022-12-12T08:36:54.979Z,-0.61
2022-12-12T08:39:23.341Z,-0.63
2022-12-12T08:41:51.527Z,-0.53
2022-12-12T08:44:23.646Z,-0.38
2022-12-12T08:46:51.878Z,-0.48
2022-12-12T08:49:20.041Z,-0.61
2022-12-12T08:51:51.398Z,-0.83
2022-12-12T08:54:19.596Z,-0.63
2022-12-12T08:56:47.977Z,-0.49
2022-12-12T08:59:16.180Z,-0.52
2022-12-12T09:01:44.378Z,-0.56
2022-12-12T09:04:12.500Z,-0.54
2022-12-12T09:06:40.726Z,-0.68
2022-12-12T09:09:10.379Z,-0.37
2022-12-12T09:11:38.489Z,-0.34
2022-12-12T09:14:06.742Z,-0.39
2022-12-12T09:16:34.948Z,-0.29
2022-12-12T09:19:03.274Z,-0.40
2022-12-12T09:21:31.438Z,-0.27
2022-12-12T09:23:59.713Z,-0.15
2022-12-12T09:26:30.400Z,-0.07
2022-12-12T09:28:58.470Z,-0.19
2022-12-12T09:31:26.734Z,-0.41
2022-12-12T09:33:55.274Z,-0.53
2022-12-12T09:36:23.392Z,-0.37
2022-12-12T09:38:51.594Z,-0.29
2022-12-12T09:41:21.742Z,-0.28
2022-12-12T09:43:55.956Z,-0.14
2022-12-12T09:46:33.009Z,-0.13
2022-12-12T09:49:14.713Z,-0.28
2022-12-12T09:51:53.377Z,0.01
2022-12-12T09:54:30.946Z,-0.35
2022-12-12T09:57:21.685Z,-0.34
2022-12-12T10:00:04.942Z,0.04
2022-12-12T10:03:07.433Z,-0.39
2022-12-12T10:05:46.306Z,-0.08
2022-12-12T10:08:23.613Z,0.00
2022-12-12T10:10:55.937Z,-0.10
2022-12-12T10:13:33.057Z,-0.40
2022-12-12T10:16:19.189Z,-0.37
2022-12-12T10:19:01.273Z,-0.16
2022-12-12T10:21:35.836Z,-0.14
2022-12-12T10:24:15.355Z,-0.30
2022-12-12T10:26:45.209Z,-0.17
2022-12-12T10:29:19.365Z,-0.03
2022-12-12T10:32:11.843Z,-0.17
2022-12-12T10:34:56.275Z,-0.36
2022-12-12T10:37:39.062Z,-0.21
2022-12-12T10:40:36.400Z,-0.20
2022-12-12T10:43:15.385Z,-0.36
2022-12-12T10:45:59.317Z,-0.30
2022-12-12T10:48:41.486Z,-0.37
2022-12-12T10:51:13.037Z,-0.29
2022-12-12T10:53:43.965Z,-0.72
2022-12-12T10:56:32.072Z,-0.45
2022-12-12T10:59:10.240Z,-0.23
2022-12-12T11:04:36.304Z,-0.40
2022-12-12T11:07:20.285Z,-0.34
2022-12-12T11:09:49.509Z,-0.34
2022-12-12T11:12:21.350Z,-0.18
2022-12-12T11:14:53.440Z,-0.30
2022-12-12T11:17:28.375Z,-0.29
2022-12-12T11:20:03.991Z,-0.08
2022-12-12T11:22:36.005Z,-0.32
2022-12-12T11:25:16.042Z,-0.37
2022-12-12T11:27:47.240Z,-0.21
2022-12-12T11:30:29.331Z,-0.04
2022-12-12T11:32:59.294Z,-0.26
2022-12-12T11:35:48.888Z,-0.40
2022-12-12T11:38:28.191Z,-0.35
2022-12-12T11:41:05.747Z,-0.62
2022-12-12T11:43:41.409Z,-0.60
2022-12-12T11:46:18.667Z,-0.59
2022-12-12T11:49:01.647Z,-0.42
2022-12-12T11:51:48.222Z,-0.31
2022-12-12T11:54:21.953Z,-0.45
2022-12-12T11:57:06.503Z,-0.54
2022-12-12T11:59:57.673Z,-0.32
2022-12-12T12:02:56.249Z,-0.39
2022-12-12T12:05:34.500Z,-0.32
2022-12-12T12:08:29.178Z,-0.27
2022-12-12T12:11:14.979Z,-0.30
2022-12-12T12:14:12.663Z,-0.35
2022-12-12T12:16:57.105Z,-0.49
2022-12-12T12:19:32.509Z,-0.50
2022-12-12T12:22:24.728Z,-0.75
2022-12-12T12:25:35.324Z,-0.70
2022-12-12T12:28:19.666Z,-0.38
2022-12-12T12:30:59.532Z,-0.41
2022-12-12T12:33:48.203Z,-0.30
2022-12-12T12:36:26.441Z,-0.50
2022-12-12T12:39:10.789Z,-0.50
2022-12-12T12:41:59.537Z,-0.47
2022-12-12T12:44:41.228Z,-0.45
2022-12-12T12:47:26.903Z,-0.70
2022-12-12T12:49:58.189Z,-0.65
2022-12-12T12:52:32.454Z,-0.58
2022-12-12T12:55:04.300Z,-0.62
2022-12-12T12:57:39.301Z,-0.58
2022-12-12T13:00:22.357Z,-0.61
2022-12-12T13:02:57.365Z,-0.54
2022-12-12T13:05:33.769Z,-0.63
2022-12-12T13:08:16.041Z,-0.58
2022-12-12T13:10:59.155Z,-0.39
2022-12-12T13:13:42.492Z,-0.47
2022-12-12T13:16:20.012Z,-0.50
2022-12-12T13:18:51.752Z,-0.35
2022-12-12T13:21:31.462Z,-0.49
2022-12-12T13:24:06.698Z,-0.49
2022-12-12T13:26:43.177Z,-0.86
2022-12-12T13:29:55.326Z,-0.69
2022-12-12T13:32:56.123Z,-0.70
2022-12-12T13:35:40.375Z,-0.56
2022-12-12T13:38:19.505Z,-0.38
2022-12-12T13:41:02.006Z,-0.52
2022-12-12T13:43:41.422Z,-0.50
2022-12-12T13:46:37.491Z,-0.66
2022-12-12T13:49:29.391Z,-0.76
2022-12-12T13:52:26.637Z,-0.78
2022-12-12T13:55:19.048Z,-0.91
2022-12-12T13:58:20.765Z,-1.00
2022-12-12T14:00:49.635Z,-1.06
2022-12-12T14:03:37.404Z,-0.92
2022-12-12T14:06:15.307Z,-0.83
2022-12-12T14:08:55.854Z,-0.77
2022-12-12T14:11:37.723Z,-0.72
2022-12-12T14:14:20.305Z,-0.64
2022-12-12T14:16:57.159Z,-0.77
2022-12-12T14:19:40.030Z,-0.76
2022-12-12T14:22:26.068Z,-0.65
2022-12-12T14:25:23.160Z,-0.76
2022-12-12T14:28:21.210Z,-0.93
2022-12-12T14:31:18.887Z,-0.92
2022-12-12T14:34:08.945Z,-0.76
2022-12-12T14:37:16.748Z,-0.73
2022-12-12T14:40:04.972Z,-0.59
2022-12-12T14:43:18.757Z,-0.61
2022-12-12T14:45:37.574Z,-0.61
2022-12-12T14:48:32.813Z,-0.63
2022-12-12T14:51:10.439Z,-0.89
2022-12-12T14:53:53.090Z,-0.46
2022-12-12T14:56:39.385Z,-0.57
2022-12-12T14:59:19.328Z,-0.72
2022-12-12T15:01:51.215Z,-0.63
2022-12-12T15:04:28.839Z,-0.67
2022-12-12T15:06:57.865Z,-0.64
2022-12-12T15:09:30.783Z,-0.56
2022-12-12T15:12:14.792Z,-0.55
2022-12-12T15:14:58.498Z,-0.54
2022-12-12T15:17:38.382Z,-0.60
2022-12-12T15:20:15.795Z,-0.41
2022-12-12T15:22:57.099Z,-0.56
2022-12-12T15:25:31.709Z,-0.42
2022-12-12T15:28:05.962Z,-0.51
2022-12-12T15:30:42.273Z,-0.67
2022-12-12T15:33:27.428Z,-0.42
2022-12-12T15:36:01.762Z,-0.64
2022-12-12T15:38:39.148Z,-0.63
2022-12-12T15:41:13.526Z,-0.57
2022-12-12T15:43:45.605Z,-0.56
2022-12-12T15:46:19.824Z,-0.64
2022-12-12T15:48:58.368Z,-0.39
2022-12-12T15:51:33.932Z,-0.38
2022-12-12T15:54:08.804Z,-0.60
2022-12-12T15:56:53.499Z,-0.47
2022-12-12T15:59:31.652Z,-0.49
2022-12-12T16:02:19.713Z,-0.44
2022-12-12T16:05:00.720Z,-0.32
2022-12-12T16:07:36.776Z,-0.43
2022-12-12T16:10:25.837Z,-0.40
2022-12-12T16:13:10.175Z,-0.55
2022-12-12T16:15:48.223Z,-0.72
2022-12-12T16:18:31.322Z,-0.57
2022-12-12T16:21:11.995Z,-0.76
2022-12-12T16:23:46.037Z,-0.73
2022-12-12T16:26:26.007Z,-0.84
2022-12-12T16:28:57.564Z,-0.71
2022-12-12T16:31:28.496Z,-0.85
2022-12-12T16:33:59.665Z,-0.82
2022-12-12T16:36:30.994Z,-0.74
2022-12-12T16:39:09.222Z,-0.68
2022-12-12T16:41:37.810Z,-0.72
2022-12-12T16:44:07.342Z,-1.00
2022-12-12T16:46:39.900Z,-0.70
2022-12-12T16:49:18.529Z,-0.68
2022-12-12T16:51:54.776Z,-0.80
2022-12-12T16:54:29.049Z,-0.74
2022-12-12T16:57:07.605Z,-0.63
2022-12-12T16:59:39.162Z,-0.79
2022-12-12T17:02:21.830Z,-0.72
2022-12-12T17:04:53.601Z,-0.68
2022-12-12T17:07:22.692Z,-0.71
2022-12-12T17:09:53.628Z,-0.59
2022-12-12T17:12:23.946Z,-0.57
2022-12-12T17:15:04.971Z,-0.73
2022-12-12T17:17:39.865Z,-0.69
2022-12-12T17:20:10.498Z,-0.77
2022-12-12T17:22:54.691Z,-0.70
2022-12-12T17:25:26.127Z,-0.65
2022-12-12T17:27:55.657Z,-0.60
2022-12-12T17:30:34.392Z,-0.63
2022-12-12T17:33:19.719Z,-0.92
2022-12-12T17:36:01.187Z,-0.91
2022-12-12T17:38:34.508Z,-0.92
2022-12-12T17:41:05.397Z,-0.95
2022-12-12T17:43:46.556Z,-0.91
2022-12-12T17:46:21.923Z,-0.88
2022-12-12T17:49:00.086Z,-0.84
2022-12-12T17:51:33.380Z,-0.84
2022-12-12T17:54:02.049Z,-0.76
2022-12-12T17:56:33.804Z,-0.88
2022-12-12T17:59:13.603Z,-0.68
2022-12-12T18:01:45.967Z,-0.70
2022-12-12T18:04:40.857Z,-0.80
2022-12-12T18:07:26.293Z,-0.83
2022-12-12T18:10:03.681Z,-0.73
2022-12-12T18:12:35.283Z,-0.72
2022-12-12T18:15:10.554Z,-0.67
2022-12-12T18:17:41.581Z,-0.73
2022-12-12T18:20:29.586Z,-0.74
2022-12-12T18:23:05.450Z,-0.80
2022-12-12T18:25:45.461Z,-0.89
2022-12-12T18:28:15.267Z,-0.93
2022-12-12T18:30:46.046Z,-0.90
2022-12-12T18:33:21.657Z,-0.86
2022-12-12T18:35:52.477Z,-0.90
2022-12-12T18:38:33.912Z,-0.92
2022-12-12T18:41:04.273Z,-0.78
2022-12-12T18:43:35.254Z,-0.78
2022-12-12T18:46:14.775Z,-0.96
2022-12-12T18:48:48.007Z,-0.95
2022-12-12T18:51:21.778Z,-0.82
2022-12-12T18:53:53.328Z,-0.92
2022-12-12T18:56:34.579Z,-0.95
2022-12-12T18:59:41.200Z,-0.94
2022-12-12T19:02:13.466Z,-1.02
2022-12-12T19:04:48.582Z,-1.01
2022-12-12T19:07:28.426Z,-1.06
2022-12-12T19:10:07.822Z,-1.01
2022-12-12T19:12:38.268Z,-1.10
2022-12-12T19:15:23.821Z,-0.90
2022-12-12T19:17:58.250Z,-0.92
2022-12-12T19:20:32.821Z,-0.88
2022-12-12T19:23:31.861Z,-0.87
2022-12-12T19:26:11.050Z,-0.96
2022-12-12T19:29:00.122Z,-0.91
2022-12-12T19:31:46.258Z,-0.71
2022-12-12T19:34:34.454Z,-0.86
2022-12-12T19:37:10.117Z,-0.63
2022-12-12T19:39:52.707Z,-0.61
2022-12-12T19:42:38.957Z,-0.70
2022-12-12T19:45:26.517Z,-0.73
2022-12-12T19:47:56.993Z,-0.76
2022-12-12T19:50:30.617Z,-0.90
2022-12-12T19:53:01.531Z,-0.78
2022-12-12T19:55:56.104Z,-0.70
2022-12-12T19:58:39.071Z,-0.60
2022-12-12T20:01:18.962Z,-0.59
2022-12-12T20:04:08.578Z,-0.74
2022-12-12T20:06:51.082Z,-0.68
2022-12-12T20:09:30.872Z,-0.88
2022-12-12T20:12:09.573Z,-0.76
2022-12-12T20:14:41.921Z,-0.90
2022-12-12T20:17:34.375Z,-0.87
2022-12-12T20:20:15.795Z,-0.72
2022-12-12T20:22:47.438Z,-0.94
2022-12-12T20:25:30.666Z,-0.74
2022-12-12T20:31:28.657Z,-0.85
2022-12-12T20:36:50.691Z,-0.78
2022-12-12T20:39:22.472Z,-0.80
2022-12-12T20:41:56.362Z,-0.69
2022-12-12T20:44:40.437Z,-0.84
2022-12-12T20:47:21.779Z,-1.00
2022-12-12T20:49:52.099Z,-1.03
2022-12-12T20:52:45.806Z,-0.94
2022-12-12T20:55:18.272Z,-0.77
2022-12-12T20:57:52.550Z,-0.93
2022-12-12T21:00:32.502Z,-1.15
2022-12-12T21:03:12.403Z,-0.99
2022-12-12T21:05:52.149Z,-0.91
2022-12-12T21:08:25.124Z,-0.83
2022-12-12T21:10:55.281Z,-0.97
2022-12-12T21:13:43.461Z,-1.12
2022-12-12T21:16:26.170Z,-1.16
2022-12-12T21:19:03.598Z,-0.83
2022-12-12T21:21:34.827Z,-0.80
2022-12-12T21:24:27.771Z,-0.87
2022-12-12T21:27:00.774Z,-0.87
2022-12-12T21:29:33.781Z,-0.72
2022-12-12T21:32:29.287Z,-0.72
2022-12-12T21:35:04.199Z,-0.62
2022-12-12T21:37:40.725Z,-0.45
2022-12-12T21:40:15.185Z,-0.61
2022-12-12T21:42:43.911Z,-0.77
2022-12-12T21:45:17.927Z,-0.66
2022-12-12T21:47:55.316Z,-0.79
2022-12-12T21:50:34.740Z,-0.86
2022-12-12T21:53:24.033Z,-0.65
2022-12-12T21:55:54.439Z,-0.74
2022-12-12T21:58:25.626Z,-0.54
2022-12-12T22:01:01.595Z,-0.77
2022-12-12T22:03:35.815Z,-0.70
2022-12-12T22:06:18.880Z,-0.88
2022-12-12T22:08:50.075Z,-0.81
2022-12-12T22:11:41.353Z,-0.79
2022-12-12T22:14:19.652Z,-0.92
2022-12-12T22:16:48.223Z,-1.05
2022-12-12T22:19:27.184Z,-0.90
2022-12-12T22:22:04.098Z,-0.81
2022-12-12T22:24:32.763Z,-0.91
2022-12-12T22:27:05.529Z,-0.93
2022-12-12T22:29:41.275Z,-0.74
2022-12-12T22:32:12.266Z,-0.75
2022-12-12T22:35:00.843Z,-0.86
2022-12-12T22:37:32.397Z,-0.83
2022-12-12T22:40:15.665Z,-0.94
2022-12-12T22:42:45.164Z,-0.93
2022-12-12T22:45:20.377Z,-0.99
2022-12-12T22:47:52.821Z,-0.94
2022-12-12T22:50:31.144Z,-1.09
2022-12-12T22:53:03.645Z,-1.04
2022-12-12T22:55:42.581Z,-1.02
2022-12-12T22:58:19.472Z,-1.20
2022-12-12T23:00:49.247Z,-1.22
2022-12-12T23:03:27.480Z,-1.17
2022-12-12T23:06:08.166Z,-1.25
2022-12-12T23:08:49.399Z,-1.46
2022-12-12T23:11:21.274Z,-1.22
2022-12-12T23:13:52.181Z,-1.10
2022-12-12T23:16:45.078Z,-1.02
2022-12-12T23:19:19.026Z,-1.07
2022-12-12T23:24:31.513Z,-1.03
2022-12-12T23:27:10.447Z,-1.13
2022-12-12T23:29:41.793Z,-0.81
2022-12-12T23:32:10.410Z,-1.15
2022-12-12T23:34:39.079Z,-1.22
2022-12-12T23:37:09.672Z,-1.36
2022-12-12T23:39:42.713Z,-1.21
2022-12-12T23:42:18.543Z,-1.20
2022-12-12T23:45:06.200Z,-1.18
2022-12-12T23:47:36.115Z,-1.33
2022-12-12T23:50:10.030Z,-1.25
2022-12-12T23:52:40.250Z,-1.30
2022-12-12T23:55:10.607Z,-1.30
2022-12-12T23:57:42.793Z,-1.23
